Tiempo atmosférico en la estación meteorológica de Villarrobledo, Albacete (718 m.)



Fecha
DESCASC
Temp. máxima en grados centígrados (hora)
DESCASC
Temp. mínima en grados centígrados (hora)
DESCASC
Temp. media en grados centígrados
DESCASC
Racha de viento máxima en m/sg (hora)
DESCASC
Velocidad máxima media en intervalos de 10 minutos(hora)
DESCASC
Precipitaciones diarias en mm
DESCASC
Precipitaciones de 00:00 a 06:00 en mm
DESCASC
Precipitaciones de 06:00 a 12:00 en mm
DESCASC
Precipitaciones de 12:00 a 18:00 en mm
DESCASC
Precipitaciones de 18:00 a 24:00 en mm
DESCASC
13-06-2019 28.4 (18:30) 12.7 (06:40) 20.5 10.56 (20:00) 7.22 (09:50) 0 0 0 0 0
12-06-2019 28.9 (18:50) 7.9 (05:50) 18.4 10.56 (23:00) 5.83 (23:00) 0 0 0 0 0
11-06-2019 26.4 (16:30) 11.6 (07:20) 19 11.39 (17:00) 6.39 (15:30) 0 0 0 0 0
10-06-2019 28.1 (17:40) 11.9 (06:50) 20 9.44 (14:30) 5.28 (15:30) 0 0 0 0 0
09-06-2019 28.4 (17:20) 12.9 (00:00) 20.6 11.94 (17:30) 7.22 (18:20) 0 0 0 0 0
08-06-2019 26.7 (17:00) 9.9 (00:00) 18.3 16.39 (18:10) 7.78 (15:50) 0 0 0 0 0
07-06-2019 25.1 (17:40) 12.7 (00:00) 18.9 13.89 (12:50) 6.94 (08:30) 0 0 0 0 0
06-06-2019 27.3 (18:30) 8.8 (00:00) 18 12.22 (19:00) 7.78 (20:30) 0 0 0 0 0
05-06-2019 23 (16:40) 12.6 (00:00) 17.8 13.89 (10:20) 9.17 (10:10) 0 0 0 0 0
04-06-2019 31.9 (16:00) 14.7 (00:00) 23.3 13.06 (15:50) 7.22 (17:50) 0 0 0 0 0
03-06-2019 34.9 (18:00) 14 (00:00) 24.5 10 (15:30) 5.56 (18:10) 0 0 0 0 0
02-06-2019 36.4 (18:20) 11.6 (00:00) 24 8.06 (02:10) 3.89 (03:30) 0 0 0 0 0
01-06-2019 31.5 (17:50) 11.1 (00:00) 21.3 9.17 (17:10) 5 (01:00) 0 0 0 0 0
31-05-2019 29 (17:50) 11.1 (00:00) 20.1 9.44 (12:40) 5 (12:40) 0 0 0 0 0
30-05-2019 27.9 (16:50) 9.3 (00:00) 18.6 9.44 (14:00) 5 (16:30) 0 0 0 0 0
29-05-2019 30.4 (18:00) 9.2 (00:00) 19.8 8.61 (21:40) 5 (20:20) 0 0 0 0 0
28-05-2019 31.3 (15:50) 12.3 (00:00) 21.8 10 (17:30) 5.28 (14:30) 0 0 0 0 0
27-05-2019 31.3 (18:50) 8.4 (00:00) 19.8 10.28 (17:00) 5.83 (16:40) 0 0 0 0 0
26-05-2019 29.8 (17:20) 10.3 (00:00) 20 9.72 (14:30) 5 (14:30) 0 0 0 0 0
25-05-2019 27.3 (16:00) 10.7 (00:00) 19 6.67 (17:20) 3.61 (12:50) 0 0 0 0 0
24-05-2019 28.8 (14:50) 13.2 (00:00) 21 16.67 (15:40) 9.17 (16:20) 0 0 0 0 0
23-05-2019 30.1 (15:40) 12.5 (00:00) 21.3 9.17 (18:10) 5.28 (18:20) 0 0 0 0 0
22-05-2019 30 (17:20) 10 (00:00) 20 7.5 (01:10) 4.17 (17:30) 0 0 0 0 0
21-05-2019 25.9 (18:40) 13.7 (07:10) 19.8 11.11 (22:10) 5 (22:40) 0 0 0 0 0
20-05-2019 24.1 (16:00) 5.3 (07:10) 14.7 8.33 (19:30) 5 (19:30) 0 0 0 0 0
19-05-2019 22.9 (19:10) 5.2 (00:00) 14 9.44 (15:30) 5 (16:40) 0 0 0 0 0
18-05-2019 19.6 (17:30) 10 (00:00) 14.8 11.94 (16:10) 6.67 (17:20) 0 0 0 0 0
17-05-2019 20.9 (18:20) 10.1 (00:00) 15.5 16.11 (12:20) 10 (11:00) 0 0 0 0 0

Gráficas

Temp. máximas Temp. mínimas Temp. medias Precipitaciones Rachas de viento máximas Velocidades máximas media en intervalos de 10 minutos

Datos horarios

Fecha y hora oficial Temperatura (ºC) Velocidad del viento (km/h) Dirección del viento Racha (km/h) Dirección de racha Precipitación (mm) Presión (hPa) Tendencia (hPa) Humedad (%)
2019-06-15 23:00:00 19.6 2 Norte 8 Noroeste 0 -- -- 27
2019-06-15 22:00:00 21.6 4 Noroeste 20 Oeste 0 -- -- 23
2019-06-15 21:00:00 23.8 12 Oeste 26 Oeste 0 -- -- 19
2019-06-15 20:00:00 26 17 Oeste 28 Oeste 0 -- -- 18
2019-06-15 19:00:00 26.6 15 Oeste 32 Oeste 0 -- -- 17
2019-06-15 18:00:00 26.1 13 Oeste 31 Oeste 0 -- -- 20
2019-06-15 17:00:00 27.4 13 Oeste 30 Noroeste 0 -- -- 19
2019-06-15 16:00:00 25.7 11 Oeste 33 Oeste 0 -- -- 23
2019-06-15 15:00:00 25 15 Oeste 28 Oeste 0 -- -- 25
2019-06-15 14:00:00 22.9 10 Sudoeste 26 Oeste 0 -- -- 29
2019-06-15 13:00:00 21.3 15 Oeste 28 Oeste 0 -- -- 31
2019-06-15 12:00:00 19.7 13 Sudoeste 27 Sudoeste 0 -- -- 34
2019-06-15 11:00:00 19.3 12 Oeste 22 Oeste 0 -- -- 36
2019-06-15 10:00:00 17.1 12 Oeste 21 Oeste 0 -- -- 42
2019-06-15 09:00:00 15.1 11 Oeste 18 Oeste 0 -- -- 47
2019-06-15 08:00:00 12.8 12 Oeste 18 Sudoeste 0 -- -- 51
2019-06-15 07:00:00 9.8 5 Sudoeste 11 Sudoeste 0 -- -- 59
2019-06-15 06:00:00 10.7 5 Oeste 12 Oeste 0 -- -- 56
2019-06-15 05:00:00 10.9 5 Sudoeste 9 Sudoeste 0 -- -- 54
2019-06-15 04:00:00 11.9 4 Sudoeste 18 Oeste 0 -- -- 51
2019-06-15 03:00:00 13.3 14 Oeste 24 Sudoeste 0 -- -- 47
2019-06-15 02:00:00 14.2 12 Sudoeste 25 Oeste 0 -- -- 44
2019-06-15 01:00:00 15.4 11 Sudoeste 22 Oeste 0 -- -- 41
2019-06-15 00:00:00 16.9 12 Oeste 26 Sudoeste 0 -- -- 37
2019-06-14 23:00:00 18.4 13 Oeste 27 Sudoeste 0 -- -- 34
2019-06-14 22:00:00 20.4 13 Sudoeste 35 Oeste 0 -- -- 30
2019-06-14 21:00:00 22.4 21 Oeste 37 Oeste 0 -- -- 27
2019-06-14 20:00:00 25.1 21 Sudoeste 40 Sudoeste 0 -- -- 22
2019-06-14 19:00:00 25.9 24 Sudoeste 40 Sudoeste 0 -- -- 20
2019-06-14 18:00:00 26.4 24 Sudoeste 44 Oeste 0 -- -- 20
2019-06-14 17:00:00 26.8 25 Sudoeste 47 Oeste 0 -- -- 19
2019-06-14 16:00:00 26.3 27 Sudoeste 46 Sudoeste 0 -- -- 24
2019-06-14 15:00:00 26.3 21 Sudoeste 44 Oeste 0 -- -- 23
2019-06-14 14:00:00 24.9 23 Sudoeste 43 Sudoeste 0 -- -- 30
2019-06-14 13:00:00 23.9 20 Sudoeste 40 Sudoeste 0 -- -- 35
2019-06-14 12:00:00 23.1 18 Oeste 40 Oeste 0 -- -- 31
2019-06-14 11:00:00 21.6 17 Sudoeste 32 Oeste 0 -- -- 29
2019-06-14 10:00:00 20.6 15 Oeste 27 Sudoeste 0 -- -- 29
2019-06-14 09:00:00 17.6 15 Sudoeste 27 Sudoeste 0 -- -- 35
2019-06-14 08:00:00 17.3 13 Sudoeste 26 Sudoeste 0 -- -- 36
2019-06-14 07:00:00 16.8 14 Sudoeste 27 Sudoeste 0 -- -- 37
2019-06-14 06:00:00 17 17 Sudoeste 31 Sudoeste 0 -- -- 51
2019-06-14 05:00:00 18.1 12 Sudoeste 19 Sudoeste 0 -- -- 39
2019-06-14 04:00:00 16.1 5 Sudeste 14 Este 0 -- -- 67
2019-06-14 03:00:00 15.8 12 Este 24 Este 0 -- -- 70
2019-06-14 02:00:00 16.1 12 Este 26 Nordeste 0 -- -- 69
2019-06-14 01:00:00 16.8 9 Este 25 Este 0 -- -- 67
2019-06-14 00:00:00 17.5 12 Este 29 Nordeste 0 -- -- 64
2019-06-13 23:00:00 18.7 15 Este 32 Este 0 -- -- 57
2019-06-13 22:00:00 19.9 13 Este 34 Este 0 -- -- 54
2019-06-13 21:00:00 21.6 13 Este 37 Este 0 -- -- 51
2019-06-13 20:00:00 23.9 23 Este 38 Este 0 -- -- 45
2019-06-13 19:00:00 26.9 17 Nordeste 30 Nordeste 0 -- -- 34
2019-06-13 18:00:00 28 14 Nordeste 29 Nordeste 0 -- -- 32
2019-06-13 17:00:00 27.1 11 Este 31 Este 0 -- -- 34
2019-06-13 16:00:00 26.4 13 Este 32 Nordeste 0 -- -- 36
2019-06-13 15:00:00 23.5 13 Este 36 Sudeste 0 -- -- 43
2019-06-13 14:00:00 23.8 17 Este 35 Este 0 -- -- 42
2019-06-13 13:00:00 22.9 15 Este 32 Este 0 -- -- 44
2019-06-13 12:00:00 21.4 15 Este 32 Sudeste 0 -- -- 50
2019-06-13 11:00:00 20.1 18 Sudeste 33 Sudeste 0 -- -- 52
2019-06-13 10:00:00 18.8 19 Sudeste 38 Sudeste 0 -- -- 56
2019-06-13 09:00:00 16.1 21 Este 33 Este 0 -- -- 67
2019-06-13 08:00:00 13.9 10 Este 23 Sudeste 0 -- -- 77
2019-06-13 07:00:00 12.7 9 Este 30 Nordeste 0 -- -- 81
2019-06-13 06:00:00 12.9 9 Este 25 Nordeste 0 -- -- 82
2019-06-13 05:00:00 13.2 12 Este 30 Nordeste 0 -- -- 82
2019-06-13 04:00:00 13.5 13 Este 31 Este 0 -- -- 82
2019-06-13 03:00:00 13.6 11 Este 35 Este 0 -- -- 80
2019-06-13 02:00:00 14.5 13 Este 36 Nordeste 0 -- -- 75
2019-06-13 01:00:00 15.1 17 Este 34 Este 0 -- -- 73
2019-06-13 00:00:00 16.1 15 Este 35 Este 0 -- -- 65
2019-06-12 23:00:00 18.2 21 Nordeste 38 Nordeste 0 -- -- 54
2019-06-12 22:00:00 20.7 11 Este 29 Este 0 -- -- 41
2019-06-12 21:00:00 22.3 12 Este 33 Sudeste 0 -- -- 36
2019-06-12 20:00:00 25.4 13 Este 34 Sudeste 0 -- -- 30
2019-06-12 19:00:00 28.3 7 Sudoeste 22 Sudoeste 0 -- -- 18
2019-06-12 18:00:00 28.3 10 Oeste 22 Oeste 0 -- -- 16
2019-06-12 17:00:00 26.9 9 Sudoeste 27 Oeste 0 -- -- 17
2019-06-12 16:00:00 26.5 7 Sur 26 Oeste 0 -- -- 19
2019-06-12 15:00:00 25.5 4 Este 17 Este 0 -- -- 28
2019-06-12 14:00:00 24.8 5 Nordeste 23 Nordeste 0 -- -- 31
2019-06-12 13:00:00 23.2 10 Nordeste 24 Nordeste 0 -- -- 34
2019-06-12 12:00:00 20.2 10 Este 31 Nordeste 0 -- -- 40
2019-06-12 11:00:00 18 12 Este 31 Nordeste 0 -- -- 45
2019-06-12 10:00:00 15.5 13 Este 30 Este 0 -- -- 51
2019-06-12 09:00:00 13.2 9 Este 23 Nordeste 0 -- -- 62
2019-06-12 08:00:00 10.7 8 Este 19 Este 0 -- -- 77
2019-06-12 07:00:00 8 10 Este 18 Este 0 -- -- 83
2019-06-12 06:00:00 7.9 3 Este 15 Este 0 -- -- 82
2019-06-12 05:00:00 8.2 5 Nordeste 12 Este 0 -- -- 81
2019-06-12 04:00:00 9.2 7 Nordeste 14 Nordeste 0 -- -- 77
2019-06-12 03:00:00 10 8 Nordeste 18 Este 0 -- -- 75
2019-06-12 02:00:00 11.7 10 Nordeste 17 Nordeste 0 -- -- 69
2019-06-12 01:00:00 12.9 5 Este 18 Sudeste 0 -- -- 61
2019-06-12 00:00:00 14.1 6 Este 19 Este 0 -- -- 60
2019-06-11 23:00:00 16.2 6 Norte 15 Norte 0 -- -- 32
2019-06-11 22:00:00 17.6 6 Norte 22 Norte 0 -- -- 29
2019-06-11 21:00:00 20.2 13 Norte 25 Noroeste 0 -- -- 27
2019-06-11 20:00:00 23.2 12 Noroeste 30 Noroeste 0 -- -- 24
2019-06-11 19:00:00 23.2 17 Noroeste 32 Norte 0 -- -- 25
2019-06-11 18:00:00 25.2 18 Norte 40 Noroeste 0 -- -- 23
2019-06-11 17:00:00 24.3 22 Noroeste 41 Noroeste 0 -- -- 26
2019-06-11 16:00:00 25 21 Noroeste 37 Norte 0 -- -- 26
2019-06-11 15:00:00 23.8 18 Noroeste 36 Oeste 0 -- -- 27
2019-06-11 14:00:00 24 14 Oeste 34 Oeste 0 -- -- 28
2019-06-11 13:00:00 23.9 13 Oeste 32 Oeste 0 -- -- 26
2019-06-11 12:00:00 22.5 15 Oeste 33 Oeste 0 -- -- 27
2019-06-11 11:00:00 21 17 Oeste 28 Oeste 0 -- -- 29
2019-06-11 10:00:00 19.2 15 Sudoeste 27 Oeste 0 -- -- 34
2019-06-11 09:00:00 17.5 14 Sudoeste 24 Sudoeste 0 -- -- 40
2019-06-11 08:00:00 13.2 10 Sudoeste 16 Sudoeste 0 -- -- 53
2019-06-11 07:00:00 11.9 9 Sudoeste 18 Sudoeste 0 -- -- 46
2019-06-11 06:00:00 13.6 10 Sudoeste 18 Sudoeste 0 -- -- 40
2019-06-11 05:00:00 13.2 8 Sudoeste 15 Sudoeste 0 -- -- 40
2019-06-11 04:00:00 13.8 5 Sudoeste 13 Sudoeste 0 -- -- 40
2019-06-11 03:00:00 15.4 8 Oeste 17 Oeste 0 -- -- 37
2019-06-11 02:00:00 17.2 10 Oeste 28 Oeste 0 -- -- 34
2019-06-11 01:00:00 17.7 9 Sudoeste 18 Sudoeste 0 -- -- 35
2019-06-11 00:00:00 18.8 12 Sudoeste 24 Oeste 0 -- -- 34
2019-06-10 23:00:00 20.1 4 Sudoeste 8 Sudoeste 0 -- -- 30
2019-06-10 22:00:00 21.5 6 Oeste 12 Sudoeste 0 -- -- 28
2019-06-10 21:00:00 23.8 10 Sudoeste 22 Oeste 0 -- -- 25
2019-06-10 20:00:00 26.2 9 Sudoeste 30 Sudoeste 0 -- -- 21
2019-06-10 19:00:00 27.6 11 Noroeste 32 Oeste 0 -- -- 20
2019-06-10 18:00:00 26.8 18 Sudoeste 31 Sudoeste 0 -- -- 21
2019-06-10 17:00:00 27.2 13 Oeste 30 Oeste 0 -- -- 20
2019-06-10 16:00:00 26.7 13 Oeste 33 Oeste 0 -- -- 21
2019-06-10 15:00:00 25.4 16 Sudoeste 34 Sudoeste 0 -- -- 22
2019-06-10 14:00:00 25.2 13 Oeste 30 Sudoeste 0 -- -- 22
2019-06-10 13:00:00 24.4 14 Oeste 30 Sudoeste 0 -- -- 27
2019-06-10 12:00:00 23.6 12 Oeste 23 Oeste 0 -- -- 29
2019-06-10 11:00:00 21.1 12 Oeste 23 Oeste 0 -- -- 35
2019-06-10 10:00:00 18.9 13 Oeste 24 Oeste 0 -- -- 39
2019-06-10 09:00:00 17 14 Oeste 22 Oeste 0 -- -- 42
2019-06-10 08:00:00 14.5 12 Oeste 21 Oeste 0 -- -- 48
2019-06-10 07:00:00 11.9 8 Sudoeste 14 Sudoeste 0 -- -- 54
2019-06-10 06:00:00 12.6 6 Sudoeste 17 Oeste 0 -- -- 51
2019-06-10 05:00:00 13.7 11 Sudoeste 21 Sudoeste 0 -- -- 46
2019-06-10 04:00:00 14.2 11 Oeste 19 Oeste 0 -- -- 43
2019-06-10 03:00:00 14.7 10 Sudoeste 17 Sudoeste 0 -- -- 38
2019-06-10 02:00:00 13.8 5 Sudoeste 10 Sudoeste 0 -- -- 37
2019-06-10 01:00:00 15.2 5 Sudoeste 13 Sudoeste 0 -- -- 33
2019-06-10 00:00:00 17.9 9 Sudoeste 17 Sudoeste 0 -- -- 28
2019-06-09 23:00:00 19.7 10 Oeste 19 Oeste 0 -- -- 24
2019-06-09 22:00:00 22 12 Oeste 31 Oeste 0 -- -- 21
2019-06-09 21:00:00 24.2 18 Oeste 36 Oeste 0 -- -- 19
2019-06-09 20:00:00 26.2 22 Oeste 38 Oeste 0 -- -- 20
2019-06-09 19:00:00 27.4 22 Oeste 41 Oeste 0 -- -- 21
2019-06-09 18:00:00 28.3 19 Oeste 43 Oeste 0 -- -- 21
2019-06-09 17:00:00 28 21 Oeste 42 Oeste 0 -- -- 21
2019-06-09 16:00:00 28.1 19 Oeste 38 Sudoeste 0 -- -- 22
2019-06-09 15:00:00 27.4 14 Sudoeste 38 Oeste 0 -- -- 22
2019-06-09 14:00:00 26.6 16 Oeste 35 Oeste 0 -- -- 21
2019-06-09 13:00:00 26.1 15 Oeste 30 Oeste 0 -- -- 19
2019-06-09 12:00:00 24.3 15 Oeste 27 Sudoeste 0 -- -- 23
2019-06-09 11:00:00 22.6 15 Sudoeste 26 Oeste 0 -- -- 28
2019-06-09 10:00:00 20.8 17 Sudoeste 25 Oeste 0 -- -- 37
2019-06-09 09:00:00 17.4 6 Oeste 9 Oeste 0 -- -- 55
2019-06-09 08:00:00 13.1 0 Calma 11 Nordeste 0 -- -- 71
2019-06-09 07:00:00 12.9 4 Este 17 Este 0 -- -- 71
2019-06-09 06:00:00 13.5 11 Este 19 Este 0 -- -- 68
2019-06-09 05:00:00 13.7 8 Este 22 Este 0 -- -- 69
2019-06-09 04:00:00 14.2 10 Este 25 Este 0 -- -- 67
2019-06-09 03:00:00 14.5 10 Este 27 Nordeste 0 -- -- 66
2019-06-09 02:00:00 14.9 10 Este 26 Nordeste 0 -- -- 64
2019-06-09 01:00:00 15.3 10 Este 30 Este 0 -- -- 62
2019-06-09 00:00:00 16 10 Este 33 Sudeste 0 -- -- 60
2019-06-08 23:00:00 16.9 12 Este 38 Este 0 -- -- 58
2019-06-08 22:00:00 18.2 17 Este 38 Nordeste 0 -- -- 55
2019-06-08 21:00:00 20.2 22 Este 45 Nordeste 0 -- -- 49
2019-06-08 20:00:00 23.7 23 Este 50 Este 0 -- -- 43
2019-06-08 19:00:00 25.1 22 Este 59 Este 0 -- -- 39
2019-06-08 18:00:00 26.4 23 Este 51 Este 0 -- -- 36
2019-06-08 17:00:00 26.7 24 Este 50 Nordeste 0 -- -- 35
2019-06-08 16:00:00 26.3 22 Este 48 Sudeste 0 -- -- 35
2019-06-08 15:00:00 24.8 25 Este 51 Este 0 -- -- 36
2019-06-08 14:00:00 24.8 25 Este 46 Sudeste 0 -- -- 36
2019-06-08 13:00:00 23 26 Este 51 Este 0 -- -- 40
2019-06-08 12:00:00 21.9 19 Este 50 Sudeste 0 -- -- 45
2019-06-08 11:00:00 20.4 21 Este 46 Sudeste 0 -- -- 51
2019-06-08 10:00:00 17.9 19 Este 41 Este 0 -- -- 57
2019-06-08 09:00:00 16 14 Este 27 Este 0 -- -- 59
2019-06-08 08:00:00 14 7 Este 21 Este 0 -- -- 61
2019-06-08 07:00:00 10.6 10 Este 20 Este 0 -- -- 57
2019-06-08 06:00:00 10.9 8 Este 15 Nordeste 0 -- -- 47
2019-06-08 05:00:00 10.5 9 Este 15 Este 0 -- -- 43
2019-06-08 04:00:00 10 5 Nordeste 8 Este 0 -- -- 39
2019-06-08 03:00:00 10.5 2 Este 4 Nordeste 0 -- -- 37
2019-06-08 02:00:00 11.2 0 Calma 4 Sudeste 0 -- -- 35
2019-06-08 01:00:00 12.6 0 Calma 6 Este 0 -- -- 31
2019-06-08 00:00:00 14.7 3 Nordeste 7 Nordeste 0 -- -- 28
2019-06-07 23:00:00 16.5 5 Nordeste 14 Norte 0 -- -- 26
2019-06-07 22:00:00 19.3 6 Norte 16 Norte 0 -- -- 22
2019-06-07 21:00:00 21.7 9 Noroeste 21 Oeste 0 -- -- 16
2019-06-07 20:00:00 23.7 10 Oeste 26 Oeste 0 -- -- 14
2019-06-07 19:00:00 24.6 8 Oeste 24 Noroeste 0 -- -- 14
2019-06-07 18:00:00 25 12 Oeste 26 Sudoeste 0 -- -- 14
2019-06-07 17:00:00 23.6 14 Oeste 36 Oeste 0 -- -- 14
2019-06-07 16:00:00 23.1 13 Sudoeste 32 Oeste 0 -- -- 16
2019-06-07 15:00:00 22.3 16 Oeste 34 Oeste 0 -- -- 17
2019-06-07 14:00:00 21 19 Oeste 40 Sudoeste 0 -- -- 25
2019-06-07 13:00:00 19.6 23 Sudoeste 50 Sudoeste 0 -- -- 36
2019-06-07 12:00:00 18.4 14 Oeste 32 Noroeste 0 -- -- 42
2019-06-07 11:00:00 16 20 Oeste 38 Sudoeste 0 -- -- 49
2019-06-07 10:00:00 14.2 19 Sudoeste 35 Sudoeste 0 -- -- 65
2019-06-07 09:00:00 13.2 21 Sudoeste 37 Sudoeste 0 -- -- 69
2019-06-07 08:00:00 14.1 18 Sudoeste 34 Sudoeste 0 -- -- 60
2019-06-07 07:00:00 13.3 17 Sudoeste 28 Sudoeste 0 -- -- 54
2019-06-07 06:00:00 13 17 Sudoeste 24 Sudoeste 0 -- -- 48
2019-06-07 05:00:00 12.7 14 Sudoeste 20 Sudoeste 0 -- -- 37
2019-06-07 04:00:00 13.4 12 Sudoeste 18 Sur 0 -- -- 31
2019-06-07 03:00:00 14.8 11 Sudoeste 21 Sudoeste 0 -- -- 28
2019-06-07 02:00:00 15.1 7 Sur 20 Sur 0 -- -- 31
2019-06-07 01:00:00 17.8 12 Sudoeste 34 Sudoeste 0 -- -- 25
2019-06-07 00:00:00 19.2 20 Sudoeste 32 Sudoeste 0 -- -- 22
2019-06-06 23:00:00 20.1 18 Sudoeste 30 Sudoeste 0 -- -- 15
2019-06-06 22:00:00 20.9 14 Sudoeste 34 Sudoeste 0 -- -- 15
2019-06-06 21:00:00 23.6 25 Sudoeste 44 Sudoeste 0 -- -- 11
2019-06-06 20:00:00 25.6 22 Sudoeste 44 Sudoeste 0 -- -- 13
2019-06-06 19:00:00 26.5 27 Sudoeste 44 Sudoeste 0 -- -- 12
2019-06-06 18:00:00 27 21 Sudoeste 42 Sudoeste 0 -- -- 14
2019-06-06 17:00:00 27 14 Sudoeste 43 Sudoeste 0 -- -- 14
2019-06-06 16:00:00 26.9 19 Sudoeste 41 Sudoeste 0 -- -- 15
2019-06-06 15:00:00 25.4 19 Sudoeste 41 Sudoeste 0 -- -- 19
2019-06-06 14:00:00 24.6 15 Sudoeste 33 Sur 0 -- -- 21
2019-06-06 13:00:00 23.7 10 Oeste 22 Sur 0 -- -- 24
2019-06-06 12:00:00 21.5 7 Sudeste 15 Sudeste 0 -- -- 27
2019-06-06 11:00:00 20.9 4 Sudoeste 13 Sudoeste 0 -- -- 27
2019-06-06 10:00:00 20.2 3 Noroeste 8 Oeste 0 -- -- 29
2019-06-06 09:00:00 15.4 6 Sudoeste 10 Sudoeste 0 -- -- 39
2019-06-06 08:00:00 11.2 0 Calma 7 Este 0 -- -- 48
2019-06-06 07:00:00 9.4 5 Sudoeste 9 Oeste 0 -- -- 51
2019-06-06 06:00:00 8.8 4 Sudoeste 8 Sudoeste 0 -- -- 54
2019-06-06 05:00:00 9.5 3 Sudoeste 10 Sudoeste 0 -- -- 49
2019-06-06 04:00:00 10.7 7 Sudoeste 14 Oeste 0 -- -- 46
2019-06-06 03:00:00 10.9 4 Sudoeste 11 Sudoeste 0 -- -- 44
2019-06-06 02:00:00 11.7 4 Sudoeste 12 Sudoeste 0 -- -- 42
2019-06-06 01:00:00 12.8 7 Sudoeste 15 Oeste 0 -- -- 39
2019-06-06 00:00:00 13.2 10 Sudoeste 15 Sudoeste 0 -- -- 37
2019-06-05 23:00:00 15.7 10 Sudoeste 17 Sudoeste 0 -- -- 31
2019-06-05 22:00:00 17 8 Sudoeste 17 Oeste 0 -- -- 29
2019-06-05 21:00:00 19.7 11 Noroeste 27 Noroeste 0 -- -- 23
2019-06-05 20:00:00 21.5 18 Oeste 30 Oeste 0 -- -- 21
2019-06-05 19:00:00 20.3 16 Oeste 35 Oeste 0 -- -- 21
2019-06-05 18:00:00 21.8 20 Oeste 36 Oeste 0 -- -- 20
2019-06-05 17:00:00 22.3 22 Oeste 42 Oeste 0 -- -- 20
2019-06-05 16:00:00 21.8 24 Oeste 45 Oeste 0 -- -- 21
2019-06-05 15:00:00 21.8 23 Oeste 47 Oeste 0 -- -- 23
2019-06-05 14:00:00 21.2 27 Oeste 45 Sudoeste 0 -- -- 26
2019-06-05 13:00:00 18.9 27 Oeste 44 Oeste 0 -- -- 34
2019-06-05 12:00:00 17.2 22 Oeste 41 Oeste 0 -- -- 40
2019-06-05 11:00:00 15.6 28 Oeste 50 Oeste 0 -- -- 46
2019-06-05 10:00:00 14.5 29 Sudoeste 49 Sudoeste 0 -- -- 48
2019-06-05 09:00:00 13.3 26 Sudoeste 49 Oeste 0 -- -- 54
2019-06-05 08:00:00 12.9 25 Sudoeste 49 Sudoeste 0 -- -- 53
2019-06-05 07:00:00 14.5 26 Oeste 39 Oeste 0 -- -- 56
2019-06-05 06:00:00 15.9 23 Oeste 47 Sudoeste 0 -- -- 57
2019-06-05 05:00:00 17.4 22 Sudoeste 41 Sudoeste 0 -- -- 58
2019-06-05 04:00:00 18.7 19 Sudoeste 35 Oeste 0 -- -- 54
2019-06-05 03:00:00 19.7 11 Sudoeste 30 Oeste 0 -- -- 48
2019-06-05 02:00:00 20.4 7 Oeste 14 Oeste 0 -- -- 42
2019-06-05 01:00:00 20.4 9 Oeste 21 Noroeste 0 -- -- 41
2019-06-05 00:00:00 22.6 12 Oeste 26 Sudoeste 0 -- -- 33
2019-06-04 23:00:00 23.3 14 Sudoeste 25 Sudoeste 0 -- -- 30
2019-06-04 22:00:00 25.1 12 Sudoeste 25 Oeste 0 -- -- 27
2019-06-04 21:00:00 27 14 Sudoeste 32 Sudoeste 0 -- -- 28
2019-06-04 20:00:00 28.7 22 Sudoeste 35 Sudoeste 0 -- -- 20
2019-06-04 19:00:00 29.7 23 Sudoeste 40 Sudoeste 0 -- -- 16
2019-06-04 18:00:00 30.4 23 Sudoeste 44 Sudoeste 0 -- -- 15
2019-06-04 17:00:00 31.6 23 Sudoeste 41 Sudoeste 0 -- -- 16
2019-06-04 16:00:00 31.9 20 Sudoeste 47 Sudoeste 0 -- -- 16
2019-06-04 15:00:00 31.3 19 Sudoeste 39 Oeste 0 -- -- 17
2019-06-04 14:00:00 30.3 21 Sudoeste 37 Sudoeste 0 -- -- 19
2019-06-04 13:00:00 29.7 19 Sudoeste 34 Sudoeste 0 -- -- 20
2019-06-04 12:00:00 28.9 18 Sudoeste 31 Sudoeste 0 -- -- 22
2019-06-04 11:00:00 27.2 13 Sudoeste 25 Sudoeste 0 -- -- 28
2019-06-04 10:00:00 24.9 15 Sudoeste 28 Sudoeste 0 -- -- 32
2019-06-04 09:00:00 22.1 16 Sudoeste 27 Sudoeste 0 -- -- 34
2019-06-04 08:00:00 18.7 4 Oeste 11 Oeste 0 -- -- 39
2019-06-04 07:00:00 14.8 4 Sudoeste 8 Sudoeste 0 -- -- 45
2019-06-04 06:00:00 16.7 6 Sudoeste 15 Sudoeste 0 -- -- 37
2019-06-04 05:00:00 18.2 8 Sudoeste 17 Oeste 0 -- -- 32
2019-06-04 04:00:00 19.7 8 Sudoeste 18 Sudoeste 0 -- -- 29
2019-06-04 03:00:00 17.8 4 Sudoeste 11 Sur 0 -- -- 33
2019-06-04 02:00:00 19.5 2 Nordeste 12 Sudeste 0 -- -- 34
2019-06-04 01:00:00 20 2 Oeste 10 Sudoeste 0 -- -- 30
2019-06-04 00:00:00 21.6 4 Sudoeste 9 Sudoeste 0 -- -- 26
2019-06-03 23:00:00 23.4 3 Sudoeste 10 Sudoeste 0 -- -- 25
2019-06-03 22:00:00 26.9 3 Sudoeste 9 Sudoeste 0 -- -- 21
2019-06-03 21:00:00 30.5 5 Oeste 18 Sudoeste 0 -- -- 16
2019-06-03 20:00:00 33.9 7 Sudoeste 23 Sudoeste 0 -- -- 13
2019-06-03 19:00:00 33.8 16 Sudoeste 31 Oeste 0 -- -- 13
2019-06-03 18:00:00 34.9 8 Oeste 30 Sudoeste 0 -- -- 13
2019-06-03 17:00:00 34.4 13 Sudoeste 31 Sudoeste 0 -- -- 13
2019-06-03 16:00:00 33.8 19 Sudoeste 36 Sudoeste 0 -- -- 15
2019-06-03 15:00:00 34.1 12 Oeste 28 Oeste 0 -- -- 14
2019-06-03 14:00:00 33.5 11 Sudoeste 28 Noroeste 0 -- -- 15
2019-06-03 13:00:00 32.7 11 Oeste 22 Oeste 0 -- -- 16
2019-06-03 12:00:00 30.9 13 Oeste 26 Oeste 0 -- -- 18
2019-06-03 11:00:00 28.4 9 Sudoeste 23 Oeste 0 -- -- 22
2019-06-03 10:00:00 25.9 12 Sudoeste 18 Oeste 0 -- -- 26
2019-06-03 09:00:00 21.5 5 Nordeste 10 Nordeste 0 -- -- 38
2019-06-03 08:00:00 15.2 6 Este 15 Nordeste 0 -- -- 50
2019-06-03 07:00:00 14 10 Nordeste 14 Nordeste 0 -- -- 53
2019-06-03 06:00:00 14.7 6 Nordeste 17 Este 0 -- -- 49
2019-06-03 05:00:00 15.4 10 Este 17 Este 0 -- -- 48
2019-06-03 04:00:00 15.5 8 Nordeste 18 Nordeste 0 -- -- 48
2019-06-03 03:00:00 16.2 9 Nordeste 16 Nordeste 0 -- -- 45
2019-06-03 02:00:00 17.1 11 Nordeste 22 Este 0 -- -- 43
2019-06-03 01:00:00 18.8 12 Nordeste 18 Nordeste 0 -- -- 40
2019-06-03 00:00:00 21.3 4 Sur 16 Sur 0 -- -- 31
2019-06-02 23:00:00 22.6 6 Sudeste 15 Sur 0 -- -- 28
2019-06-02 22:00:00 25.2 5 Sudeste 14 Sudeste 0 -- -- 26
2019-06-02 21:00:00 29.1 5 Sudeste 18 Sudeste 0 -- -- 20
2019-06-02 20:00:00 32.4 6 Sur 15 Sudoeste 0 -- -- 15
2019-06-02 19:00:00 35.5 3 Noroeste 18 Nordeste 0 -- -- 13
2019-06-02 18:00:00 35.2 7 Nordeste 16 Este 0 -- -- 14
2019-06-02 17:00:00 35.4 6 Oeste 17 Este 0 -- -- 14
2019-06-02 16:00:00 34.7 5 Este 14 Este 0 -- -- 14
2019-06-02 15:00:00 35.2 5 Norte 15 Norte 0 -- -- 15
2019-06-02 14:00:00 31.7 6 Este 15 Norte 0 -- -- 19
2019-06-02 13:00:00 30.6 4 Oeste 20 Nordeste 0 -- -- 20
2019-06-02 12:00:00 27.9 10 Nordeste 20 Este 0 -- -- 24
2019-06-02 11:00:00 25.2 9 Nordeste 19 Nordeste 0 -- -- 29
2019-06-02 10:00:00 20.1 14 Nordeste 20 Nordeste 0 -- -- 37
2019-06-02 09:00:00 17.4 13 Nordeste 19 Nordeste 0 -- -- 40
2019-06-02 08:00:00 14.3 10 Este 15 Este 0 -- -- 48
2019-06-02 07:00:00 11.6 9 Nordeste 15 Este 0 -- -- 56
2019-06-02 06:00:00 12.5 7 Nordeste 22 Nordeste 0 -- -- 53
2019-06-02 05:00:00 12.9 13 Este 22 Este 0 -- -- 53
2019-06-02 04:00:00 13.4 12 Nordeste 23 Este 0 -- -- 53
2019-06-02 03:00:00 14.6 12 Este 29 Este 0 -- -- 49
2019-06-02 02:00:00 15.4 14 Este 24 Este 0 -- -- 49
2019-06-02 01:00:00 16.7 14 Este 24 Nordeste 0 -- -- 48
2019-06-02 00:00:00 18.6 5 Sudeste 15 Sudeste 0 -- -- 36
2019-06-01 23:00:00 20.1 3 Sudeste 12 Sudeste 0 -- -- 35
2019-06-01 22:00:00 24.1 6 Sudeste 15 Este 0 -- -- 28
2019-06-01 21:00:00 26.9 10 Sudeste 19 Sudeste 0 -- -- 24
2019-06-01 20:00:00 29.3 9 Sudeste 24 Este 0 -- -- 20
2019-06-01 19:00:00 30.2 10 Sudeste 26 Este 0 -- -- 19
2019-06-01 18:00:00 31.4 12 Este 33 Sudeste 0 -- -- 18
2019-06-01 17:00:00 30.7 12 Este 30 Nordeste 0 -- -- 18
2019-06-01 16:00:00 30.3 12 Este 27 Este 0 -- -- 17
2019-06-01 15:00:00 29.9 14 Este 30 Nordeste 0 -- -- 17
2019-06-01 14:00:00 28.1 13 Este 32 Nordeste 0 -- -- 25
2019-06-01 13:00:00 27.5 13 Este 27 Nordeste 0 -- -- 25
2019-06-01 12:00:00 25.3 12 Este 28 Este 0 -- -- 31
2019-06-01 11:00:00 23 11 Este 24 Este 0 -- -- 40
2019-06-01 10:00:00 19.6 13 Este 24 Este 0 -- -- 45
2019-06-01 09:00:00 16.8 8 Este 21 Este 0 -- -- 53
2019-06-01 08:00:00 13.7 7 Este 15 Nordeste 0 -- -- 63
2019-06-01 07:00:00 11.1 9 Este 14 Este 0 -- -- 71
2019-06-01 06:00:00 11.6 10 Nordeste 16 Este 0 -- -- 69
2019-06-01 05:00:00 12.5 11 Este 19 Nordeste 0 -- -- 66
2019-06-01 04:00:00 13.5 7 Este 15 Este 0 -- -- 64
2019-06-01 03:00:00 14.3 7 Este 29 Este 0 -- -- 62
2019-06-01 02:00:00 15.4 13 Este 25 Este 0 -- -- 60
2019-06-01 01:00:00 16.5 18 Este 27 Este 0 -- -- 57
2019-06-01 00:00:00 17.9 12 Nordeste 20 Nordeste 0 -- -- 42
2019-05-31 23:00:00 19.5 5 Sudeste 14 Sudeste 0 -- -- 36
2019-05-31 22:00:00 22.6 8 Sudeste 14 Sudeste 0 -- -- 30
2019-05-31 21:00:00 25.2 9 Sudeste 21 Este 0 -- -- 25
2019-05-31 20:00:00 26.8 15 Sudeste 26 Este 0 -- -- 23
2019-05-31 19:00:00 28.3 12 Este 27 Este 0 -- -- 21
2019-05-31 18:00:00 28.5 13 Este 27 Este 0 -- -- 20
2019-05-31 17:00:00 28.1 15 Este 27 Sudeste 0 -- -- 18
2019-05-31 16:00:00 28 13 Este 27 Este 0 -- -- 18
2019-05-31 15:00:00 27.7 11 Este 34 Nordeste 0 -- -- 22
2019-05-31 14:00:00 27 12 Este 31 Sudeste 0 -- -- 25
2019-05-31 13:00:00 25.5 14 Este 34 Sudeste 0 -- -- 27
2019-05-31 12:00:00 24.1 13 Este 30 Este 0 -- -- 33
2019-05-31 11:00:00 22.4 11 Este 28 Este 0 -- -- 37
2019-05-31 10:00:00 19 10 Este 26 Este 0 -- -- 50
2019-05-31 09:00:00 16.2 14 Este 23 Nordeste 0 -- -- 56
2019-05-31 08:00:00 12.9 13 Este 21 Este 0 -- -- 66
2019-05-31 07:00:00 11.1 10 Nordeste 19 Este 0 -- -- 72
2019-05-31 06:00:00 11.3 13 Nordeste 22 Nordeste 0 -- -- 74
2019-05-31 05:00:00 11.5 10 Nordeste 20 Este 0 -- -- 73
2019-05-31 04:00:00 12.7 13 Nordeste 21 Nordeste 0 -- -- 69
2019-05-31 03:00:00 13.4 11 Este 23 Nordeste 0 -- -- 66
2019-05-31 02:00:00 14 13 Nordeste 24 Este 0 -- -- 63
2019-05-31 01:00:00 15.2 13 Nordeste 21 Nordeste 0 -- -- 56
2019-05-31 00:00:00 17.2 4 Este 13 Sudeste 0 -- -- 42
2019-05-30 23:00:00 18.5 4 Sudeste 11 Sudeste 0 -- -- 39
2019-05-30 22:00:00 21.4 4 Sudeste 17 Sudeste 0 -- -- 31
2019-05-30 21:00:00 24 11 Sudeste 22 Sudeste 0 -- -- 26
2019-05-30 20:00:00 25.8 14 Sudeste 25 Este 0 -- -- 24
2019-05-30 19:00:00 26.5 15 Este 29 Este 0 -- -- 23
2019-05-30 18:00:00 27.1 12 Este 32 Este 0 -- -- 22
2019-05-30 17:00:00 27.6 12 Este 34 Nordeste 0 -- -- 20
2019-05-30 16:00:00 26.4 15 Este 31 Nordeste 0 -- -- 22
2019-05-30 15:00:00 26.4 13 Este 30 Este 0 -- -- 24
2019-05-30 14:00:00 24.8 15 Este 34 Nordeste 0 -- -- 26
2019-05-30 13:00:00 23.5 15 Este 33 Este 0 -- -- 30
2019-05-30 12:00:00 22.4 12 Este 27 Este 0 -- -- 32
2019-05-30 11:00:00 20.5 10 Este 27 Nordeste 0 -- -- 36
2019-05-30 10:00:00 18.1 14 Nordeste 27 Este 0 -- -- 44
2019-05-30 09:00:00 15.3 13 Nordeste 22 Este 0 -- -- 50
2019-05-30 08:00:00 12.2 9 Nordeste 15 Este 0 -- -- 59
2019-05-30 07:00:00 9.5 4 Este 14 Este 0 -- -- 71
2019-05-30 06:00:00 9.7 7 Nordeste 17 Este 0 -- -- 67
2019-05-30 05:00:00 10.2 10 Nordeste 22 Este 0 -- -- 68
2019-05-30 04:00:00 11.3 10 Nordeste 21 Este 0 -- -- 68
2019-05-30 03:00:00 12.7 9 Este 23 Este 0 -- -- 63
2019-05-30 02:00:00 14.1 15 Este 23 Este 0 -- -- 57
2019-05-30 01:00:00 16.3 12 Nordeste 19 Nordeste 0 -- -- 45
2019-05-30 00:00:00 18.8 12 Nordeste 25 Nordeste 0 -- -- 35
2019-05-29 23:00:00 20.1 10 Norte 30 Norte 0 -- -- 33
2019-05-29 22:00:00 21.9 13 Norte 31 Norte 0 -- -- 29
2019-05-29 21:00:00 24.3 15 Norte 31 Norte 0 -- -- 25
2019-05-29 20:00:00 28.2 13 Norte 27 Norte 0 -- -- 20
2019-05-29 19:00:00 30.1 14 Norte 24 Norte 0 -- -- 18
2019-05-29 18:00:00 30.4 12 Noroeste 23 Noroeste 0 -- -- 17
2019-05-29 17:00:00 29 7 Nordeste 22 Noroeste 0 -- -- 16
2019-05-29 16:00:00 28.4 11 Noroeste 27 Nordeste 0 -- -- 16
2019-05-29 15:00:00 26.5 7 Nordeste 20 Norte 0 -- -- 17
2019-05-29 14:00:00 26.6 12 Norte 23 Norte 0 -- -- 17
2019-05-29 13:00:00 23.4 9 Noroeste 18 Norte 0 -- -- 22
2019-05-29 12:00:00 22.4 9 Norte 18 Noroeste 0 -- -- 26
2019-05-29 11:00:00 20.5 5 Noroeste 14 Norte 0 -- -- 31
2019-05-29 10:00:00 17.4 5 Nordeste 16 Norte 0 -- -- 36
2019-05-29 09:00:00 14.4 9 Nordeste 21 Nordeste 0 -- -- 43
2019-05-29 08:00:00 11.7 7 Nordeste 16 Nordeste 0 -- -- 51
2019-05-29 07:00:00 9.3 4 Nordeste 13 Nordeste 0 -- -- 57
2019-05-29 06:00:00 10.8 5 Norte 13 Norte 0 -- -- 52
2019-05-29 05:00:00 12.2 4 Norte 10 Norte 0 -- -- 50
2019-05-29 04:00:00 12.4 3 Norte 7 Norte 0 -- -- 52
2019-05-29 03:00:00 14.2 3 Este 9 Nordeste 0 -- -- 46
2019-05-29 02:00:00 14.9 4 Este 18 Nordeste 0 -- -- 45
2019-05-29 01:00:00 15.8 8 Nordeste 24 Nordeste 0 -- -- 43
2019-05-29 00:00:00 18 12 Norte 25 Norte 0 -- -- 36
2019-05-28 23:00:00 19.1 4 Norte 9 Norte 0 -- -- 29
2019-05-28 22:00:00 21 4 Norte 18 Nordeste 0 -- -- 26
2019-05-28 21:00:00 23.8 11 Norte 33 Noroeste 0 -- -- 21
2019-05-28 20:00:00 27.3 14 Norte 32 Noroeste 0 -- -- 17
2019-05-28 19:00:00 29.9 15 Noroeste 31 Noroeste 0 -- -- 13
2019-05-28 18:00:00 30.9 15 Noroeste 36 Oeste 0 -- -- 13
2019-05-28 17:00:00 30.6 18 Noroeste 35 Noroeste 0 -- -- 15
2019-05-28 16:00:00 29.9 15 Noroeste 32 Noroeste 0 -- -- 19
2019-05-28 15:00:00 29.4 15 Noroeste 35 Noroeste 0 -- -- 22
2019-05-28 14:00:00 29.9 15 Noroeste 32 Noroeste 0 -- -- 23
2019-05-28 13:00:00 28.8 13 Noroeste 24 Oeste 0 -- -- 27
2019-05-28 12:00:00 27.8 6 Norte 17 Norte 0 -- -- 31
2019-05-28 11:00:00 25.3 6 Norte 13 Norte 0 -- -- 36
2019-05-28 10:00:00 21.4 6 Norte 12 Nordeste 0 -- -- 45
2019-05-28 09:00:00 17.4 5 Nordeste 9 Nordeste 0 -- -- 56
2019-05-28 08:00:00 14.6 4 Nordeste 8 Nordeste 0 -- -- 63
2019-05-28 07:00:00 12.9 3 Este 8 Sudeste 0 -- -- 68
2019-05-28 06:00:00 12.6 3 Este 8 Este 0 -- -- 69
2019-05-28 05:00:00 13.5 3 Nordeste 12 Sudeste 0 -- -- 66
2019-05-28 04:00:00 14.8 8 Nordeste 15 Nordeste 0 -- -- 61
2019-05-28 03:00:00 15.8 11 Nordeste 16 Nordeste 0 -- -- 62
2019-05-28 02:00:00 16.3 10 Nordeste 21 Este 0 -- -- 61
2019-05-28 01:00:00 17.9 10 Este 27 Nordeste 0 -- -- 54
2019-05-28 00:00:00 21.2 10 Norte 17 Norte 0 -- -- 35
2019-05-27 23:00:00 22.8 5 Norte 11 Noroeste 0 -- -- 32
2019-05-27 22:00:00 23.8 4 Norte 14 Noroeste 0 -- -- 30
2019-05-27 21:00:00 26.7 7 Noroeste 26 Noroeste 0 -- -- 25
2019-05-27 20:00:00 29.8 15 Noroeste 33 Noroeste 0 -- -- 21
2019-05-27 19:00:00 30.3 13 Oeste 36 Oeste 0 -- -- 22
2019-05-27 18:00:00 29.9 15 Noroeste 37 Oeste 0 -- -- 23
2019-05-27 17:00:00 29.4 19 Oeste 37 Oeste 0 -- -- 23
2019-05-27 16:00:00 29.3 14 Noroeste 33 Oeste 0 -- -- 24
2019-05-27 15:00:00 29.2 15 Noroeste 34 Noroeste 0 -- -- 25
2019-05-27 14:00:00 29.9 13 Noroeste 28 Noroeste 0 -- -- 24
2019-05-27 13:00:00 28 11 Noroeste 23 Oeste 0 -- -- 25
2019-05-27 12:00:00 26 10 Noroeste 21 Noroeste 0 -- -- 28
2019-05-27 11:00:00 21.4 7 Oeste 16 Sudoeste 0 -- -- 37
2019-05-27 10:00:00 17.1 9 Oeste 15 Sudoeste 0 -- -- 51
2019-05-27 09:00:00 18.3 0 Calma 7 Sudeste 0 -- -- 48
2019-05-27 08:00:00 10.4 4 Sudeste 8 Sudeste 0 -- -- 66
2019-05-27 07:00:00 8.6 0 Calma 6 Sudeste 0 -- -- 71
2019-05-27 06:00:00 9.5 2 Sur 6 Sudeste 0 -- -- 69
2019-05-27 05:00:00 10.6 5 Sudeste 9 Sudeste 0 -- -- 64
2019-05-27 04:00:00 11.8 3 Sudeste 6 Nordeste 0 -- -- 67
2019-05-27 03:00:00 13.2 3 Nordeste 10 Nordeste 0 -- -- 64
2019-05-27 02:00:00 14.4 4 Nordeste 10 Nordeste 0 -- -- 55
2019-05-27 01:00:00 16.3 6 Nordeste 14 Nordeste 0 -- -- 44
2019-05-27 00:00:00 17.7 6 Nordeste 14 Nordeste 0 -- -- 37
2019-05-26 23:00:00 19.8 6 Nordeste 15 Norte 0 -- -- 29
2019-05-26 22:00:00 21.6 6 Noroeste 22 Norte 0 -- -- 26
2019-05-26 21:00:00 24 14 Noroeste 27 Noroeste 0 -- -- 22
2019-05-26 20:00:00 27.5 14 Noroeste 30 Norte 0 -- -- 19
2019-05-26 19:00:00 28.3 13 Norte 30 Noroeste 0 -- -- 19
2019-05-26 18:00:00 28.8 15 Norte 31 Oeste 0 -- -- 19
2019-05-26 17:00:00 29.7 14 Norte 29 Noroeste 0 -- -- 17
2019-05-26 16:00:00 27.8 12 Noroeste 32 Noroeste 0 -- -- 20
2019-05-26 15:00:00 27.1 11 Noroeste 35 Oeste 0 -- -- 21
2019-05-26 14:00:00 24.8 17 Noroeste 32 Oeste 0 -- -- 23
2019-05-26 13:00:00 24.3 13 Noroeste 26 Oeste 0 -- -- 25
2019-05-26 12:00:00 21.5 10 Oeste 22 Oeste 0 -- -- 35
2019-05-26 11:00:00 20.5 5 Noroeste 15 Norte 0 -- -- 42
2019-05-26 10:00:00 18.8 3 Nordeste 10 Norte 0 -- -- 47
2019-05-26 09:00:00 17.2 3 Nordeste 8 Norte 0 -- -- 51
2019-05-26 08:00:00 14.1 3 Norte 8 Norte 0 -- -- 65
2019-05-26 07:00:00 10.5 2 Norte 8 Nordeste 0 -- -- 76
2019-05-26 06:00:00 10.7 7 Nordeste 12 Nordeste 0 -- -- 75
2019-05-26 05:00:00 11.4 6 Nordeste 13 Nordeste 0 -- -- 71
2019-05-26 04:00:00 12.4 6 Nordeste 13 Nordeste 0 -- -- 69
2019-05-26 03:00:00 13.7 10 Nordeste 16 Nordeste 0 -- -- 65
2019-05-26 02:00:00 14.1 9 Nordeste 12 Nordeste 0 -- -- 67
2019-05-26 01:00:00 15.9 3 Sudeste 10 Sudeste 0 -- -- 55
2019-05-26 00:00:00 17.6 3 Este 13 Sudeste 0 -- -- 50
2019-05-25 23:00:00 18.8 4 Este 9 Sudeste 0 -- -- 45
2019-05-25 22:00:00 20 3 Este 10 Sudeste 0 -- -- 38
2019-05-25 21:00:00 21.2 5 Este 13 Este 0 -- -- 34
2019-05-25 20:00:00 23.3 7 Nordeste 22 Este 0 -- -- 31
2019-05-25 19:00:00 25.7 12 Nordeste 22 Nordeste 0 -- -- 27
2019-05-25 18:00:00 23.5 11 Este 24 Nordeste 0 -- -- 30
2019-05-25 17:00:00 25 10 Nordeste 23 Nordeste 0 -- -- 27
2019-05-25 16:00:00 27.3 11 Norte 23 Este 0 -- -- 26
2019-05-25 15:00:00 23.6 11 Nordeste 23 Norte 0 -- -- 33
2019-05-25 14:00:00 25.1 10 Norte 22 Norte 0 -- -- 31
2019-05-25 13:00:00 22.4 10 Nordeste 24 Nordeste 0 -- -- 36
2019-05-25 12:00:00 21.9 10 Nordeste 21 Norte 0 -- -- 37
2019-05-25 11:00:00 20.9 8 Norte 21 Norte 0 -- -- 39
2019-05-25 10:00:00 18.8 9 Norte 18 Norte 0 -- -- 45
2019-05-25 09:00:00 15.9 10 Norte 17 Norte 0 -- -- 54
2019-05-25 08:00:00 11.8 6 Norte 14 Norte 0 -- -- 67
2019-05-25 07:00:00 11.5 7 Norte 13 Norte 0 -- -- 71
2019-05-25 06:00:00 11.2 6 Norte 13 Norte 0 -- -- 74
2019-05-25 05:00:00 11.2 4 Nordeste 11 Norte 0 -- -- 79
2019-05-25 04:00:00 11.3 3 Norte 9 Norte 0 -- -- 87
2019-05-25 03:00:00 11.5 4 Norte 6 Nordeste 0 -- -- 88
2019-05-25 02:00:00 11.4 5 Nordeste 9 Nordeste 0 -- -- 87
2019-05-25 01:00:00 12 4 Nordeste 14 Nordeste 0 -- -- 84
2019-05-25 00:00:00 13.2 5 Este 15 Nordeste 0 -- -- 78
2019-05-24 23:00:00 14.1 8 Este 21 Este 0 -- -- 75
2019-05-24 22:00:00 15.6 9 Este 24 Este 0 -- -- 68
2019-05-24 21:00:00 17.2 11 Este 33 Sudeste 0 -- -- 62
2019-05-24 20:00:00 18.5 15 Este 30 Este 0 -- -- 58
2019-05-24 19:00:00 20 15 Este 29 Nordeste 0 -- -- 52
2019-05-24 18:00:00 21.1 19 Nordeste 37 Nordeste 0 -- -- 50
2019-05-24 17:00:00 20.2 27 Nordeste 48 Nordeste 0 -- -- 55
2019-05-24 16:00:00 17 25 Nordeste 60 Nordeste 0 -- -- 68
2019-05-24 15:00:00 26.8 10 Nordeste 27 Nordeste 0 -- -- 34
2019-05-24 14:00:00 25.8 9 Noroeste 20 Noroeste 0 -- -- 32
2019-05-24 13:00:00 27.8 10 Noroeste 21 Oeste 0 -- -- 28
2019-05-24 12:00:00 25.2 11 Noroeste 22 Sudoeste 0 -- -- 35
2019-05-24 11:00:00 22.1 12 Sudoeste 23 Oeste 0 -- -- 40
2019-05-24 10:00:00 19 17 Oeste 26 Oeste 0 -- -- 46
2019-05-24 09:00:00 17.2 10 Sudoeste 18 Oeste 0 -- -- 50
2019-05-24 08:00:00 15.9 9 Sudoeste 17 Sudoeste 0 -- -- 51
2019-05-24 07:00:00 15.9 10 Sudoeste 19 Sudoeste 0 -- -- 49
2019-05-24 06:00:00 15.9 9 Sudoeste 19 Sudoeste 0 -- -- 48
2019-05-24 05:00:00 15.8 9 Sudoeste 18 Sudoeste 0 -- -- 47
2019-05-24 04:00:00 16.2 7 Sudoeste 13 Sudoeste 0 -- -- 47
2019-05-24 03:00:00 17.1 7 Sudoeste 14 Sudoeste 0 -- -- 44
2019-05-24 02:00:00 17.1 6 Sudoeste 11 Sudoeste 0 -- -- 44
2019-05-24 01:00:00 19 5 Sudoeste 16 Oeste 0 -- -- 38
2019-05-24 00:00:00 21 8 Oeste 13 Oeste 0 -- -- 33
2019-05-23 23:00:00 21.3 8 Oeste 12 Oeste 0 -- -- 35
2019-05-23 22:00:00 23.1 6 Oeste 15 Sudoeste 0 -- -- 32
2019-05-23 21:00:00 25.6 8 Oeste 24 Sudoeste 0 -- -- 29
2019-05-23 20:00:00 27.5 13 Sudoeste 26 Sudoeste 0 -- -- 24
2019-05-23 19:00:00 28.8 10 Oeste 33 Oeste 0 -- -- 21
2019-05-23 18:00:00 29.1 18 Oeste 30 Oeste 0 -- -- 21
2019-05-23 17:00:00 29.6 11 Oeste 31 Oeste 0 -- -- 21
2019-05-23 16:00:00 28.5 16 Oeste 28 Sudoeste 0 -- -- 22
2019-05-23 15:00:00 27.9 13 Sudoeste 27 Sudoeste 0 -- -- 24
2019-05-23 14:00:00 28.5 14 Sudoeste 28 Oeste 0 -- -- 24
2019-05-23 13:00:00 26.9 9 Oeste 21 Oeste 0 -- -- 27
2019-05-23 12:00:00 26.5 9 Sudoeste 18 Oeste 0 -- -- 30
2019-05-23 11:00:00 24.6 7 Sudoeste 15 Sudoeste 0 -- -- 35
2019-05-23 10:00:00 20.4 3 Nordeste 9 Nordeste 0 -- -- 50
2019-05-23 09:00:00 16.1 4 Nordeste 8 Nordeste 0 -- -- 64
2019-05-23 08:00:00 13.5 5 Nordeste 11 Nordeste 0 -- -- 71
2019-05-23 07:00:00 12.5 5 Nordeste 12 Nordeste 0 -- -- 73
2019-05-23 06:00:00 13.3 6 Nordeste 12 Nordeste 0 -- -- 67
2019-05-23 05:00:00 13.8 6 Nordeste 11 Este 0 -- -- 65
2019-05-23 04:00:00 13.6 8 Este 13 Nordeste 0 -- -- 66
2019-05-23 03:00:00 14.6 9 Nordeste 19 Nordeste 0 -- -- 61
2019-05-23 02:00:00 16 7 Este 13 Este 0 -- -- 51
2019-05-23 01:00:00 16 5 Sur 13 Sudeste 0 -- -- 52
2019-05-23 00:00:00 17.9 4 Sudeste 17 Sudeste 0 -- -- 47
2019-05-22 23:00:00 18.9 3 Sudeste 11 Sudeste 0 -- -- 45
2019-05-22 22:00:00 21.7 0 Calma 5 Sudoeste 0 -- -- 31
2019-05-22 21:00:00 24 3 Sudoeste 15 Oeste 0 -- -- 26
2019-05-22 20:00:00 26.9 13 Sudoeste 22 Oeste 0 -- -- 21
2019-05-22 19:00:00 28.4 10 Sudoeste 21 Oeste 0 -- -- 20
2019-05-22 18:00:00 29.5 4 Sudoeste 22 Sudoeste 0 -- -- 19
2019-05-22 17:00:00 26.8 7 Oeste 18 Noroeste 0 -- -- 22
2019-05-22 16:00:00 26.8 12 Oeste 22 Noroeste 0 -- -- 22
2019-05-22 15:00:00 28.9 5 Sudoeste 23 Sudoeste 0 -- -- 22
2019-05-22 14:00:00 28.3 7 Noroeste 17 Norte 0 -- -- 26
2019-05-22 13:00:00 26.2 5 Sur 17 Nordeste 0 -- -- 33
2019-05-22 12:00:00 23.7 8 Este 18 Nordeste 0 -- -- 39
2019-05-22 11:00:00 22.4 6 Nordeste 15 Nordeste 0 -- -- 45
2019-05-22 10:00:00 18.7 7 Este 16 Este 0 -- -- 56
2019-05-22 09:00:00 15.1 10 Nordeste 18 Nordeste 0 -- -- 69
2019-05-22 08:00:00 11.4 10 Este 17 Este 0 -- -- 85
2019-05-22 07:00:00 10.1 8 Este 13 Este 0 -- -- 86
2019-05-22 06:00:00 10.5 7 Nordeste 18 Este 0 -- -- 84
2019-05-22 05:00:00 11.5 10 Nordeste 17 Este 0 -- -- 82
2019-05-22 04:00:00 11.9 9 Este 19 Este 0 -- -- 81
2019-05-22 03:00:00 13.1 11 Este 21 Este 0 -- -- 74
2019-05-22 02:00:00 13.7 7 Este 27 Este 0 -- -- 72
2019-05-22 01:00:00 14.3 10 Este 26 Este 0 -- -- 66
2019-05-22 00:00:00 15 9 Este 30 Este 0 -- -- 66
2019-05-21 23:00:00 16.1 12 Este 40 Nordeste 0 -- -- 62
2019-05-21 22:00:00 18.6 15 Nordeste 36 Este 0 -- -- 51
2019-05-21 21:00:00 21.5 5 Nordeste 8 Nordeste 0 -- -- 30
2019-05-21 20:00:00 22.6 3 Sudoeste 14 Oeste 0 -- -- 27
2019-05-21 19:00:00 24.9 6 Sudoeste 17 Noroeste 0 -- -- 25
2019-05-21 18:00:00 23.8 12 Oeste 25 Oeste 0 -- -- 25
2019-05-21 17:00:00 23.3 5 Sur 28 Sudeste 0 -- -- 27
2019-05-21 16:00:00 23.3 9 Este 19 Este 0 -- -- 31
2019-05-21 15:00:00 22.8 4 Sudoeste 15 Norte 0 -- -- 27
2019-05-21 14:00:00 25.8 7 Norte 19 Sudeste 0 -- -- 25
2019-05-21 13:00:00 24.4 5 Sudeste 14 Sur 0 -- -- 25
2019-05-21 12:00:00 23.3 5 Sur 15 Sudoeste 0 -- -- 28
2019-05-21 11:00:00 22 6 Este 13 Este 0 -- -- 36
2019-05-21 10:00:00 18.4 6 Este 13 Nordeste 0 -- -- 46
2019-05-21 09:00:00 15.5 6 Este 12 Este 0 -- -- 50
2019-05-21 08:00:00 14.5 3 Este 8 Sudeste 0 -- -- 46
2019-05-21 07:00:00 13.9 4 Este 9 Norte 0 -- -- 48
2019-05-21 06:00:00 14.7 0 Calma 8 Sudoeste 0 -- -- 45
2019-05-21 05:00:00 15 6 Sudoeste 17 Sudoeste 0 -- -- 43
2019-05-21 04:00:00 15 2 Sudoeste 13 Sudoeste 0 -- -- 41
2019-05-21 03:00:00 15.5 5 Oeste 13 Sudoeste 0 -- -- 37
2019-05-21 02:00:00 14.6 5 Sudoeste 11 Sudoeste 0 -- -- 44
2019-05-21 01:00:00 14.6 4 Sudoeste 8 Sudoeste 0 -- -- 43
2019-05-21 00:00:00 15.3 3 Sudoeste 8 Sudoeste 0 -- -- 42
2019-05-20 23:00:00 16.7 5 Sudoeste 7 Sudoeste 0 -- -- 35
2019-05-20 22:00:00 16.8 3 Sudoeste 12 Sudoeste 0 -- -- 34
2019-05-20 21:00:00 19.9 9 Sudoeste 27 Sudoeste 0 -- -- 28
2019-05-20 20:00:00 20.6 13 Sudoeste 30 Sudoeste 0 -- -- 28
2019-05-20 19:00:00 22.8 15 Sudoeste 26 Sudoeste 0 -- -- 26
2019-05-20 18:00:00 22.9 12 Sudoeste 30 Oeste 0 -- -- 23
2019-05-20 17:00:00 23 11 Sudoeste 28 Oeste 0 -- -- 23
2019-05-20 16:00:00 24.1 17 Oeste 26 Noroeste 0 -- -- 21
2019-05-20 15:00:00 22.9 15 Oeste 30 Oeste 0 -- -- 22
2019-05-20 14:00:00 23.7 9 Oeste 27 Oeste 0 -- -- 21
2019-05-20 13:00:00 21.6 9 Sudoeste 17 Sudoeste 0 -- -- 25
2019-05-20 12:00:00 20.6 5 Oeste 12 Oeste 0 -- -- 27
2019-05-20 11:00:00 16.6 5 Sudoeste 9 Sudoeste 0 -- -- 32
2019-05-20 10:00:00 15.5 3 Sudeste 12 Este 0 -- -- 32
2019-05-20 09:00:00 12.2 8 Sudeste 14 Sudeste 0 -- -- 44
2019-05-20 08:00:00 8 5 Nordeste 9 Este 0 -- -- 68
2019-05-20 07:00:00 5.4 4 Nordeste 12 Sudeste 0 -- -- 73
2019-05-20 06:00:00 6.6 3 Nordeste 10 Nordeste 0 -- -- 71
2019-05-20 05:00:00 7.5 5 Este 11 Este 0 -- -- 67
2019-05-20 04:00:00 7.7 5 Nordeste 13 Nordeste 0 -- -- 65
2019-05-20 03:00:00 8.9 8 Nordeste 14 Nordeste 0 -- -- 59
2019-05-20 02:00:00 10.1 9 Nordeste 22 Nordeste 0 -- -- 52
2019-05-20 01:00:00 10 4 Sudeste 8 Sur 0 -- -- 47
2019-05-20 00:00:00 12 3 Sur 6 Sur 0 -- -- 40
2019-05-19 23:00:00 14.5 3 Nordeste 5 Nordeste 0 -- -- 32
2019-05-19 22:00:00 16.1 3 Nordeste 9 Norte 0 -- -- 28
2019-05-19 21:00:00 18.1 7 Norte 15 Noroeste 0 -- -- 24
2019-05-19 20:00:00 19.2 10 Noroeste 24 Noroeste 0 -- -- 22
2019-05-19 19:00:00 22.5 12 Noroeste 22 Noroeste 0 -- -- 19
2019-05-19 18:00:00 20.4 9 Oeste 24 Noroeste 0 -- -- 21
2019-05-19 17:00:00 20.2 10 Noroeste 31 Oeste 0 -- -- 22
2019-05-19 16:00:00 19.8 14 Noroeste 34 Noroeste 0 -- -- 24
2019-05-19 15:00:00 19.4 14 Oeste 31 Oeste 0 -- -- 26
2019-05-19 14:00:00 20.4 12 Oeste 30 Oeste 0 -- -- 24
2019-05-19 13:00:00 18.7 9 Sudoeste 21 Oeste 0 -- -- 30
2019-05-19 12:00:00 17.8 7 Sudoeste 21 Noroeste 0 -- -- 32
2019-05-19 11:00:00 17.5 5 Oeste 15 Sudoeste 0 -- -- 33
2019-05-19 10:00:00 15.6 4 Oeste 10 Sudoeste 0 -- -- 37
2019-05-19 09:00:00 11.5 6 Sudoeste 9 Sudoeste 0 -- -- 47
2019-05-19 08:00:00 8.3 2 Sudoeste 4 Sudoeste 0 -- -- 55
2019-05-19 07:00:00 5.5 2 Sur 6 Sur 0 -- -- 61
2019-05-19 06:00:00 7.3 2 Noroeste 6 Sudoeste 0 -- -- 55
2019-05-19 05:00:00 7.7 4 Oeste 14 Sudoeste 0 -- -- 55
2019-05-19 04:00:00 9 9 Oeste 14 Oeste 0 -- -- 49
2019-05-19 03:00:00 8.4 2 Sudoeste 5 Sur 0 -- -- 50
2019-05-19 02:00:00 9.9 2 Oeste 6 Sudoeste 0 -- -- 45
2019-05-19 01:00:00 11.1 3 Oeste 13 Noroeste 0 -- -- 41
2019-05-19 00:00:00 13.3 8 Noroeste 15 Noroeste 0 -- -- 33
2019-05-18 23:00:00 13.7 8 Noroeste 17 Noroeste 0 -- -- 31
2019-05-18 22:00:00 14.8 9 Noroeste 18 Noroeste 0 -- -- 29
2019-05-18 21:00:00 16.2 13 Oeste 31 Oeste 0 -- -- 24
2019-05-18 20:00:00 18.1 17 Noroeste 30 Oeste 0 -- -- 21
2019-05-18 19:00:00 18.5 17 Noroeste 33 Oeste 0 -- -- 21
2019-05-18 18:00:00 19 22 Oeste 40 Oeste 0 -- -- 22
2019-05-18 17:00:00 19.1 22 Oeste 43 Oeste 0 -- -- 22
2019-05-18 16:00:00 19.3 23 Oeste 41 Oeste 0 -- -- 22
2019-05-18 15:00:00 17.8 19 Oeste 40 Oeste 0 -- -- 27
2019-05-18 14:00:00 16.9 21 Oeste 40 Oeste 0 -- -- 30
2019-05-18 13:00:00 17.4 18 Oeste 38 Oeste 0 -- -- 31
2019-05-18 12:00:00 16.3 19 Oeste 33 Noroeste 0 -- -- 31
2019-05-18 11:00:00 16.5 18 Noroeste 31 Noroeste 0 -- -- 33
2019-05-18 10:00:00 15.2 12 Noroeste 25 Oeste 0 -- -- 41
2019-05-18 09:00:00 11 15 Oeste 24 Oeste 0 -- -- 52
2019-05-18 08:00:00 10.4 11 Oeste 21 Oeste 0 -- -- 57
2019-05-18 07:00:00 10 10 Oeste 17 Oeste 0 -- -- 58
2019-05-18 06:00:00 11 9 Oeste 22 Oeste 0 -- -- 51
2019-05-18 05:00:00 11.1 10 Oeste 19 Oeste 0 -- -- 50
2019-05-18 04:00:00 11 6 Oeste 10 Sudoeste 0 -- -- 53
2019-05-18 03:00:00 11.7 4 Sudoeste 8 Sudoeste 0 -- -- 55
2019-05-18 02:00:00 12.7 0 Calma 4 Sur 0 -- -- 50
2019-05-18 01:00:00 12.3 2 Sur 6 Sudoeste 0 -- -- 49
2019-05-18 00:00:00 12.2 5 Sur 7 Sur 0 -- -- 49
2019-05-17 23:00:00 13.4 3 Nordeste 9 Norte 0 -- -- 43
2019-05-17 22:00:00 14.9 6 Norte 19 Noroeste 0 -- -- 38
2019-05-17 21:00:00 17 10 Noroeste 34 Noroeste 0 -- -- 33
2019-05-17 20:00:00 19 22 Oeste 41 Noroeste 0 -- -- 26
2019-05-17 19:00:00 18.4 21 Noroeste 46 Oeste 0 -- -- 28
2019-05-17 18:00:00 19.9 24 Oeste 47 Oeste 0 -- -- 26
2019-05-17 17:00:00 19.4 24 Oeste 45 Noroeste 0 -- -- 30
2019-05-17 16:00:00 18.8 26 Noroeste 49 Oeste 0 -- -- 32
2019-05-17 15:00:00 18.7 27 Noroeste 48 Oeste 0 -- -- 32
2019-05-17 14:00:00 18.6 28 Noroeste 54 Oeste 0 -- -- 32
2019-05-17 13:00:00 17.9 32 Oeste 58 Oeste 0 -- -- 34
2019-05-17 12:00:00 16.6 35 Oeste 53 Oeste 0 -- -- 36
2019-05-17 11:00:00 14.7 36 Oeste 53 Oeste 0 -- -- 42
2019-05-17 10:00:00 13.1 29 Oeste 45 Oeste 0 -- -- 51
2019-05-17 09:00:00 11.6 27 Oeste 46 Oeste 0 -- -- 58
2019-05-17 08:00:00 10.7 20 Oeste 41 Oeste 0 -- -- 57
2019-05-17 07:00:00 10.7 21 Oeste 41 Oeste 0 -- -- 54
2019-05-17 06:00:00 11.1 22 Oeste 43 Oeste 0 -- -- 56
2019-05-17 05:00:00 11.5 23 Oeste 41 Oeste 0 -- -- 56
2019-05-17 04:00:00 12.3 23 Oeste 36 Oeste 0 -- -- 56
2019-05-17 03:00:00 13.6 28 Oeste 45 Noroeste 0 -- -- 50
2019-05-17 02:00:00 16.5 32 Oeste 50 Sudoeste 0 -- -- 46
2019-05-17 01:00:00 17.6 29 Sudoeste 57 Sudoeste 0 -- -- 44
2019-05-17 00:00:00 19 28 Sudoeste 51 Sudoeste 0 -- -- 32